sensor_id;sensor_type;location;lat;lon;timestamp;P1;durP1;ratioP1;P2;durP2;ratioP2
65857;SDS011;53776;47.242;18.674;2022-08-01T00:00:40;6.97;;;4.40;;
65857;SDS011;53776;47.242;18.674;2022-08-01T00:03:05;5.07;;;4.13;;
65857;SDS011;53776;47.242;18.674;2022-08-01T00:05:31;6.80;;;4.47;;
65857;SDS011;53776;47.242;18.674;2022-08-01T00:07:57;5.45;;;4.00;;
65857;SDS011;53776;47.242;18.674;2022-08-01T00:10:22;4.93;;;4.32;;
65857;SDS011;53776;47.242;18.674;2022-08-01T00:12:47;7.72;;;4.20;;
65857;SDS011;53776;47.242;18.674;2022-08-01T00:15:14;5.85;;;4.20;;
65857;SDS011;53776;47.242;18.674;2022-08-01T00:17:41;7.00;;;4.78;;
65857;SDS011;53776;47.242;18.674;2022-08-01T00:20:09;8.02;;;4.60;;
65857;SDS011;53776;47.242;18.674;2022-08-01T00:22:36;6.20;;;4.45;;
65857;SDS011;53776;47.242;18.674;2022-08-01T00:25:02;4.72;;;4.18;;
65857;SDS011;53776;47.242;18.674;2022-08-01T00:27:29;10.48;;;4.95;;
65857;SDS011;53776;47.242;18.674;2022-08-01T00:29:54;5.63;;;4.55;;
65857;SDS011;53776;47.242;18.674;2022-08-01T00:32:20;7.00;;;4.28;;
65857;SDS011;53776;47.242;18.674;2022-08-01T00:34:45;8.10;;;4.80;;
65857;SDS011;53776;47.242;18.674;2022-08-01T00:37:11;9.98;;;4.50;;
65857;SDS011;53776;47.242;18.674;2022-08-01T00:39:36;7.78;;;4.90;;
65857;SDS011;53776;47.242;18.674;2022-08-01T00:42:08;5.15;;;4.10;;
65857;SDS011;53776;47.242;18.674;2022-08-01T00:44:35;5.78;;;4.63;;
65857;SDS011;53776;47.242;18.674;2022-08-01T00:47:01;8.25;;;4.75;;
65857;SDS011;53776;47.242;18.674;2022-08-01T00:49:28;4.97;;;4.28;;
65857;SDS011;53776;47.242;18.674;2022-08-01T00:51:53;5.05;;;4.03;;
65857;SDS011;53776;47.242;18.674;2022-08-01T00:54:19;8.63;;;4.47;;
65857;SDS011;53776;47.242;18.674;2022-08-01T00:56:45;8.75;;;4.70;;
65857;SDS011;53776;47.242;18.674;2022-08-01T00:59:11;8.75;;;4.10;;
65857;SDS011;53776;47.242;18.674;2022-08-01T01:01:37;6.57;;;4.22;;
65857;SDS011;53776;47.242;18.674;2022-08-01T01:04:03;9.18;;;4.22;;
65857;SDS011;53776;47.242;18.674;2022-08-01T01:15:06;5.60;;;4.68;;
65857;SDS011;53776;47.242;18.674;2022-08-01T01:17:37;6.93;;;4.10;;
65857;SDS011;53776;47.242;18.674;2022-08-01T01:20:06;6.10;;;4.32;;
65857;SDS011;53776;47.242;18.674;2022-08-01T01:28:05;9.00;;;4.72;;
65857;SDS011;53776;47.242;18.674;2022-08-01T01:30:46;5.65;;;4.60;;
65857;SDS011;53776;47.242;18.674;2022-08-01T01:33:15;5.60;;;4.40;;
65857;SDS011;53776;47.242;18.674;2022-08-01T01:35:46;5.53;;;4.53;;
65857;SDS011;53776;47.242;18.674;2022-08-01T01:38:21;8.07;;;5.70;;
65857;SDS011;53776;47.242;18.674;2022-08-01T01:40:48;9.18;;;5.28;;
65857;SDS011;53776;47.242;18.674;2022-08-01T01:43:16;10.68;;;5.47;;
65857;SDS011;53776;47.242;18.674;2022-08-01T01:45:44;6.95;;;4.97;;
65857;SDS011;53776;47.242;18.674;2022-08-01T01:48:12;7.05;;;5.13;;
65857;SDS011;53776;47.242;18.674;2022-08-01T01:50:40;7.95;;;5.50;;
65857;SDS011;53776;47.242;18.674;2022-08-01T01:53:08;8.05;;;4.80;;
65857;SDS011;53776;47.242;18.674;2022-08-01T01:55:35;7.53;;;5.22;;
65857;SDS011;53776;47.242;18.674;2022-08-01T01:58:03;5.88;;;4.60;;
65857;SDS011;53776;47.242;18.674;2022-08-01T02:00:31;6.65;;;4.80;;
65857;SDS011;53776;47.242;18.674;2022-08-01T02:02:57;7.75;;;5.15;;
65857;SDS011;53776;47.242;18.674;2022-08-01T02:05:24;6.60;;;4.90;;
65857;SDS011;53776;47.242;18.674;2022-08-01T02:07:53;7.60;;;5.32;;
65857;SDS011;53776;47.242;18.674;2022-08-01T02:10:19;6.18;;;4.85;;
65857;SDS011;53776;47.242;18.674;2022-08-01T02:12:44;7.20;;;5.05;;
65857;SDS011;53776;47.242;18.674;2022-08-01T02:15:12;7.87;;;4.83;;
65857;SDS011;53776;47.242;18.674;2022-08-01T02:17:41;6.82;;;5.28;;
65857;SDS011;53776;47.242;18.674;2022-08-01T02:20:10;6.60;;;5.15;;
65857;SDS011;53776;47.242;18.674;2022-08-01T02:22:57;9.77;;;5.25;;
65857;SDS011;53776;47.242;18.674;2022-08-01T02:25:27;7.13;;;5.28;;
65857;SDS011;53776;47.242;18.674;2022-08-01T02:28:06;5.53;;;4.72;;
65857;SDS011;53776;47.242;18.674;2022-08-01T02:30:36;5.80;;;5.18;;
65857;SDS011;53776;47.242;18.674;2022-08-01T02:35:50;5.47;;;4.90;;
65857;SDS011;53776;47.242;18.674;2022-08-01T02:38:20;6.60;;;5.20;;
65857;SDS011;53776;47.242;18.674;2022-08-01T02:40:49;7.55;;;5.53;;
65857;SDS011;53776;47.242;18.674;2022-08-01T02:43:21;6.70;;;5.57;;
65857;SDS011;53776;47.242;18.674;2022-08-01T02:45:51;5.88;;;5.28;;
65857;SDS011;53776;47.242;18.674;2022-08-01T02:48:19;7.47;;;5.50;;
65857;SDS011;53776;47.242;18.674;2022-08-01T02:50:47;7.60;;;5.65;;
65857;SDS011;53776;47.242;18.674;2022-08-01T02:53:14;7.05;;;5.95;;
65857;SDS011;53776;47.242;18.674;2022-08-01T02:55:42;8.00;;;5.82;;
65857;SDS011;53776;47.242;18.674;2022-08-01T02:58:10;8.05;;;5.90;;
65857;SDS011;53776;47.242;18.674;2022-08-01T03:00:37;8.35;;;6.35;;
65857;SDS011;53776;47.242;18.674;2022-08-01T03:03:05;8.33;;;5.97;;
65857;SDS011;53776;47.242;18.674;2022-08-01T03:05:32;7.93;;;6.00;;
65857;SDS011;53776;47.242;18.674;2022-08-01T03:08:00;8.35;;;6.22;;
65857;SDS011;53776;47.242;18.674;2022-08-01T03:10:27;6.60;;;5.90;;
65857;SDS011;53776;47.242;18.674;2022-08-01T03:12:54;9.30;;;6.40;;
65857;SDS011;53776;47.242;18.674;2022-08-01T03:15:21;8.32;;;6.20;;
65857;SDS011;53776;47.242;18.674;2022-08-01T03:17:47;17.50;;;6.43;;
65857;SDS011;53776;47.242;18.674;2022-08-01T03:20:15;7.80;;;6.00;;
65857;SDS011;53776;47.242;18.674;2022-08-01T03:22:42;12.13;;;6.18;;
65857;SDS011;53776;47.242;18.674;2022-08-01T03:25:10;7.75;;;5.70;;
65857;SDS011;53776;47.242;18.674;2022-08-01T03:27:38;7.93;;;5.90;;
65857;SDS011;53776;47.242;18.674;2022-08-01T03:30:06;8.15;;;5.88;;
65857;SDS011;53776;47.242;18.674;2022-08-01T03:32:32;8.20;;;6.10;;
65857;SDS011;53776;47.242;18.674;2022-08-01T03:34:58;8.02;;;6.18;;
65857;SDS011;53776;47.242;18.674;2022-08-01T03:37:25;8.38;;;5.55;;
65857;SDS011;53776;47.242;18.674;2022-08-01T03:40:00;8.25;;;5.78;;
65857;SDS011;53776;47.242;18.674;2022-08-01T03:42:53;8.10;;;5.93;;
65857;SDS011;53776;47.242;18.674;2022-08-01T03:45:41;7.53;;;6.10;;
65857;SDS011;53776;47.242;18.674;2022-08-01T03:48:10;8.63;;;6.00;;
65857;SDS011;53776;47.242;18.674;2022-08-01T03:50:43;6.38;;;5.47;;
65857;SDS011;53776;47.242;18.674;2022-08-01T03:53:11;9.38;;;6.53;;
65857;SDS011;53776;47.242;18.674;2022-08-01T03:55:39;12.73;;;6.10;;
65857;SDS011;53776;47.242;18.674;2022-08-01T03:58:07;11.77;;;5.53;;
65857;SDS011;53776;47.242;18.674;2022-08-01T04:00:35;10.80;;;6.40;;
65857;SDS011;53776;47.242;18.674;2022-08-01T04:03:03;8.30;;;6.00;;
65857;SDS011;53776;47.242;18.674;2022-08-01T04:05:29;9.82;;;6.78;;
65857;SDS011;53776;47.242;18.674;2022-08-01T04:07:56;9.93;;;6.20;;
65857;SDS011;53776;47.242;18.674;2022-08-01T04:10:22;7.15;;;6.22;;
65857;SDS011;53776;47.242;18.674;2022-08-01T04:12:48;9.43;;;6.20;;
65857;SDS011;53776;47.242;18.674;2022-08-01T04:15:14;7.97;;;6.20;;
65857;SDS011;53776;47.242;18.674;2022-08-01T04:17:39;7.97;;;6.47;;
65857;SDS011;53776;47.242;18.674;2022-08-01T04:20:05;11.48;;;6.53;;
65857;SDS011;53776;47.242;18.674;2022-08-01T04:22:31;9.60;;;6.78;;
65857;SDS011;53776;47.242;18.674;2022-08-01T04:24:56;8.77;;;6.40;;
65857;SDS011;53776;47.242;18.674;2022-08-01T04:27:27;7.90;;;6.45;;
65857;SDS011;53776;47.242;18.674;2022-08-01T04:29:55;7.80;;;6.13;;
65857;SDS011;53776;47.242;18.674;2022-08-01T04:32:23;8.20;;;6.05;;
65857;SDS011;53776;47.242;18.674;2022-08-01T04:34:50;8.77;;;6.60;;
65857;SDS011;53776;47.242;18.674;2022-08-01T04:37:16;15.27;;;6.43;;
65857;SDS011;53776;47.242;18.674;2022-08-01T04:39:42;10.38;;;6.55;;
65857;SDS011;53776;47.242;18.674;2022-08-01T04:42:09;11.32;;;6.82;;
65857;SDS011;53776;47.242;18.674;2022-08-01T04:44:37;6.88;;;5.95;;
65857;SDS011;53776;47.242;18.674;2022-08-01T04:47:02;7.45;;;6.43;;
65857;SDS011;53776;47.242;18.674;2022-08-01T04:49:33;7.80;;;7.00;;
65857;SDS011;53776;47.242;18.674;2022-08-01T04:51:59;18.40;;;6.57;;
65857;SDS011;53776;47.242;18.674;2022-08-01T04:54:28;11.55;;;6.93;;
65857;SDS011;53776;47.242;18.674;2022-08-01T04:56:59;10.43;;;6.60;;
65857;SDS011;53776;47.242;18.674;2022-08-01T04:59:25;11.68;;;7.07;;
65857;SDS011;53776;47.242;18.674;2022-08-01T05:02:13;9.82;;;6.85;;
65857;SDS011;53776;47.242;18.674;2022-08-01T05:04:41;13.45;;;7.20;;
65857;SDS011;53776;47.242;18.674;2022-08-01T05:07:07;12.63;;;7.25;;
65857;SDS011;53776;47.242;18.674;2022-08-01T05:09:34;12.90;;;7.28;;
65857;SDS011;53776;47.242;18.674;2022-08-01T05:12:01;13.52;;;7.10;;
65857;SDS011;53776;47.242;18.674;2022-08-01T05:14:29;12.50;;;7.05;;
65857;SDS011;53776;47.242;18.674;2022-08-01T05:16:59;9.93;;;6.82;;
65857;SDS011;53776;47.242;18.674;2022-08-01T05:19:28;10.82;;;7.38;;
65857;SDS011;53776;47.242;18.674;2022-08-01T05:21:54;18.65;;;7.75;;
65857;SDS011;53776;47.242;18.674;2022-08-01T05:24:19;12.15;;;7.40;;
65857;SDS011;53776;47.242;18.674;2022-08-01T05:26:44;14.27;;;7.18;;
65857;SDS011;53776;47.242;18.674;2022-08-01T05:29:10;12.45;;;7.07;;
65857;SDS011;53776;47.242;18.674;2022-08-01T05:31:35;9.85;;;7.13;;
65857;SDS011;53776;47.242;18.674;2022-08-01T05:34:01;11.23;;;7.13;;
65857;SDS011;53776;47.242;18.674;2022-08-01T05:36:27;11.30;;;7.18;;
65857;SDS011;53776;47.242;18.674;2022-08-01T05:38:53;11.00;;;6.75;;
65857;SDS011;53776;47.242;18.674;2022-08-01T05:41:18;12.73;;;6.95;;
65857;SDS011;53776;47.242;18.674;2022-08-01T05:43:44;8.65;;;6.25;;
65857;SDS011;53776;47.242;18.674;2022-08-01T05:46:09;10.45;;;6.47;;
65857;SDS011;53776;47.242;18.674;2022-08-01T05:48:34;6.82;;;6.13;;
65857;SDS011;53776;47.242;18.674;2022-08-01T05:51:00;13.45;;;6.15;;
65857;SDS011;53776;47.242;18.674;2022-08-01T05:53:25;8.23;;;6.40;;
65857;SDS011;53776;47.242;18.674;2022-08-01T05:55:51;7.32;;;6.40;;
65857;SDS011;53776;47.242;18.674;2022-08-01T05:58:16;10.55;;;6.97;;
65857;SDS011;53776;47.242;18.674;2022-08-01T06:00:42;10.85;;;6.47;;
65857;SDS011;53776;47.242;18.674;2022-08-01T06:03:07;9.90;;;7.22;;
65857;SDS011;53776;47.242;18.674;2022-08-01T06:05:33;9.95;;;7.00;;
65857;SDS011;53776;47.242;18.674;2022-08-01T06:07:58;9.40;;;6.82;;
65857;SDS011;53776;47.242;18.674;2022-08-01T06:10:23;13.98;;;7.50;;
65857;SDS011;53776;47.242;18.674;2022-08-01T06:12:49;10.45;;;6.80;;
65857;SDS011;53776;47.242;18.674;2022-08-01T06:15:14;9.30;;;6.65;;
65857;SDS011;53776;47.242;18.674;2022-08-01T06:17:40;8.25;;;6.50;;
65857;SDS011;53776;47.242;18.674;2022-08-01T06:20:06;13.80;;;7.07;;
65857;SDS011;53776;47.242;18.674;2022-08-01T06:22:32;8.25;;;5.72;;
65857;SDS011;53776;47.242;18.674;2022-08-01T06:24:58;6.60;;;5.97;;
65857;SDS011;53776;47.242;18.674;2022-08-01T06:27:23;9.00;;;6.30;;
65857;SDS011;53776;47.242;18.674;2022-08-01T06:29:51;13.38;;;6.10;;
65857;SDS011;53776;47.242;18.674;2022-08-01T06:32:18;7.88;;;5.88;;
65857;SDS011;53776;47.242;18.674;2022-08-01T06:34:51;8.27;;;5.60;;
65857;SDS011;53776;47.242;18.674;2022-08-01T06:37:16;8.02;;;5.65;;
65857;SDS011;53776;47.242;18.674;2022-08-01T06:39:42;8.73;;;5.18;;
65857;SDS011;53776;47.242;18.674;2022-08-01T06:42:07;7.35;;;5.32;;
65857;SDS011;53776;47.242;18.674;2022-08-01T06:44:34;8.60;;;4.85;;
65857;SDS011;53776;47.242;18.674;2022-08-01T06:46:59;7.05;;;4.60;;
65857;SDS011;53776;47.242;18.674;2022-08-01T06:49:25;9.18;;;4.40;;
65857;SDS011;53776;47.242;18.674;2022-08-01T06:51:50;7.10;;;4.65;;
65857;SDS011;53776;47.242;18.674;2022-08-01T06:54:16;6.40;;;4.10;;
65857;SDS011;53776;47.242;18.674;2022-08-01T06:56:42;7.65;;;3.63;;
65857;SDS011;53776;47.242;18.674;2022-08-01T06:59:07;4.80;;;3.50;;
65857;SDS011;53776;47.242;18.674;2022-08-01T07:01:33;7.18;;;3.78;;
65857;SDS011;53776;47.242;18.674;2022-08-01T07:03:58;7.88;;;3.92;;
65857;SDS011;53776;47.242;18.674;2022-08-01T07:06:24;8.23;;;3.70;;
65857;SDS011;53776;47.242;18.674;2022-08-01T07:08:50;5.72;;;3.80;;
65857;SDS011;53776;47.242;18.674;2022-08-01T07:11:16;7.72;;;3.97;;
65857;SDS011;53776;47.242;18.674;2022-08-01T07:13:42;6.90;;;3.50;;
65857;SDS011;53776;47.242;18.674;2022-08-01T07:16:07;4.65;;;3.30;;
65857;SDS011;53776;47.242;18.674;2022-08-01T07:18:32;5.70;;;3.28;;
65857;SDS011;53776;47.242;18.674;2022-08-01T07:20:58;6.22;;;3.63;;
65857;SDS011;53776;47.242;18.674;2022-08-01T07:23:23;10.13;;;3.50;;
65857;SDS011;53776;47.242;18.674;2022-08-01T07:25:49;8.95;;;3.50;;
65857;SDS011;53776;47.242;18.674;2022-08-01T07:28:15;3.95;;;3.30;;
65857;SDS011;53776;47.242;18.674;2022-08-01T07:30:41;3.67;;;2.88;;
65857;SDS011;53776;47.242;18.674;2022-08-01T07:33:07;6.25;;;2.85;;
65857;SDS011;53776;47.242;18.674;2022-08-01T07:35:33;3.97;;;3.22;;
65857;SDS011;53776;47.242;18.674;2022-08-01T07:37:59;4.30;;;3.25;;
65857;SDS011;53776;47.242;18.674;2022-08-01T07:40:24;5.22;;;3.20;;
65857;SDS011;53776;47.242;18.674;2022-08-01T07:42:49;3.80;;;2.97;;
65857;SDS011;53776;47.242;18.674;2022-08-01T07:45:15;4.05;;;3.00;;
65857;SDS011;53776;47.242;18.674;2022-08-01T07:47:40;4.00;;;2.63;;
65857;SDS011;53776;47.242;18.674;2022-08-01T07:50:06;10.43;;;3.30;;
65857;SDS011;53776;47.242;18.674;2022-08-01T07:52:32;3.50;;;2.72;;
65857;SDS011;53776;47.242;18.674;2022-08-01T07:54:58;3.10;;;2.50;;
65857;SDS011;53776;47.242;18.674;2022-08-01T07:57:24;7.88;;;3.05;;
65857;SDS011;53776;47.242;18.674;2022-08-01T07:59:49;3.83;;;2.95;;
65857;SDS011;53776;47.242;18.674;2022-08-01T08:02:16;4.28;;;2.80;;
65857;SDS011;53776;47.242;18.674;2022-08-01T08:04:41;7.65;;;2.90;;
65857;SDS011;53776;47.242;18.674;2022-08-01T08:07:07;4.68;;;3.10;;
65857;SDS011;53776;47.242;18.674;2022-08-01T08:09:32;5.20;;;3.00;;
65857;SDS011;53776;47.242;18.674;2022-08-01T08:11:58;4.47;;;3.15;;
65857;SDS011;53776;47.242;18.674;2022-08-01T08:14:23;5.78;;;2.90;;
65857;SDS011;53776;47.242;18.674;2022-08-01T08:16:49;8.00;;;3.17;;
65857;SDS011;53776;47.242;18.674;2022-08-01T08:19:15;6.68;;;3.53;;
65857;SDS011;53776;47.242;18.674;2022-08-01T08:21:41;10.63;;;3.30;;
65857;SDS011;53776;47.242;18.674;2022-08-01T08:24:06;4.97;;;3.13;;
65857;SDS011;53776;47.242;18.674;2022-08-01T08:26:45;7.68;;;3.25;;
65857;SDS011;53776;47.242;18.674;2022-08-01T08:29:12;6.00;;;3.40;;
65857;SDS011;53776;47.242;18.674;2022-08-01T08:31:37;6.30;;;3.10;;
65857;SDS011;53776;47.242;18.674;2022-08-01T08:34:02;3.78;;;2.80;;
65857;SDS011;53776;47.242;18.674;2022-08-01T08:36:28;8.18;;;3.58;;
65857;SDS011;53776;47.242;18.674;2022-08-01T08:38:53;3.78;;;3.13;;
65857;SDS011;53776;47.242;18.674;2022-08-01T08:41:20;6.55;;;3.33;;
65857;SDS011;53776;47.242;18.674;2022-08-01T08:43:46;13.93;;;2.90;;
65857;SDS011;53776;47.242;18.674;2022-08-01T08:46:12;4.18;;;3.08;;
65857;SDS011;53776;47.242;18.674;2022-08-01T08:48:39;8.88;;;3.22;;
65857;SDS011;53776;47.242;18.674;2022-08-01T08:51:06;4.53;;;3.17;;
65857;SDS011;53776;47.242;18.674;2022-08-01T08:53:36;4.53;;;3.00;;
65857;SDS011;53776;47.242;18.674;2022-08-01T08:56:08;12.35;;;3.30;;
65857;SDS011;53776;47.242;18.674;2022-08-01T08:58:33;7.00;;;3.40;;
65857;SDS011;53776;47.242;18.674;2022-08-01T09:01:04;5.13;;;3.17;;
65857;SDS011;53776;47.242;18.674;2022-08-01T09:03:32;4.88;;;3.20;;
65857;SDS011;53776;47.242;18.674;2022-08-01T09:05:57;3.38;;;3.08;;
65857;SDS011;53776;47.242;18.674;2022-08-01T09:08:23;6.10;;;3.10;;
65857;SDS011;53776;47.242;18.674;2022-08-01T09:10:48;3.85;;;3.10;;
65857;SDS011;53776;47.242;18.674;2022-08-01T09:13:14;9.20;;;3.28;;
65857;SDS011;53776;47.242;18.674;2022-08-01T09:23:52;5.25;;;2.97;;
65857;SDS011;53776;47.242;18.674;2022-08-01T09:26:18;8.90;;;3.27;;
65857;SDS011;53776;47.242;18.674;2022-08-01T09:28:46;6.75;;;2.42;;
65857;SDS011;53776;47.242;18.674;2022-08-01T09:31:13;3.33;;;2.60;;
65857;SDS011;53776;47.242;18.674;2022-08-01T09:33:57;2.83;;;2.33;;
65857;SDS011;53776;47.242;18.674;2022-08-01T09:36:26;4.90;;;2.40;;
65857;SDS011;53776;47.242;18.674;2022-08-01T09:39:11;5.55;;;2.53;;
65857;SDS011;53776;47.242;18.674;2022-08-01T09:41:38;3.95;;;2.45;;
65857;SDS011;53776;47.242;18.674;2022-08-01T09:44:04;5.53;;;2.80;;
65857;SDS011;53776;47.242;18.674;2022-08-01T09:46:29;5.85;;;2.58;;
65857;SDS011;53776;47.242;18.674;2022-08-01T09:48:59;5.68;;;2.90;;
65857;SDS011;53776;47.242;18.674;2022-08-01T09:54:00;3.53;;;2.58;;
65857;SDS011;53776;47.242;18.674;2022-08-01T09:56:26;5.43;;;2.77;;
65857;SDS011;53776;47.242;18.674;2022-08-01T09:59:01;6.45;;;2.83;;
65857;SDS011;53776;47.242;18.674;2022-08-01T10:01:27;5.03;;;2.50;;
65857;SDS011;53776;47.242;18.674;2022-08-01T10:06:32;4.43;;;2.70;;
65857;SDS011;53776;47.242;18.674;2022-08-01T10:08:58;3.85;;;2.90;;
65857;SDS011;53776;47.242;18.674;2022-08-01T10:11:23;6.45;;;2.55;;
65857;SDS011;53776;47.242;18.674;2022-08-01T10:13:49;3.30;;;2.55;;
65857;SDS011;53776;47.242;18.674;2022-08-01T10:16:15;7.43;;;2.33;;
65857;SDS011;53776;47.242;18.674;2022-08-01T10:18:41;4.13;;;2.75;;
65857;SDS011;53776;47.242;18.674;2022-08-01T10:21:08;4.13;;;2.38;;
65857;SDS011;53776;47.242;18.674;2022-08-01T10:23:35;7.30;;;2.38;;
65857;SDS011;53776;47.242;18.674;2022-08-01T10:26:02;2.47;;;2.00;;
65857;SDS011;53776;47.242;18.674;2022-08-01T10:28:34;5.75;;;2.10;;
65857;SDS011;53776;47.242;18.674;2022-08-01T10:31:00;4.50;;;2.10;;
65857;SDS011;53776;47.242;18.674;2022-08-01T10:33:26;3.60;;;2.03;;
65857;SDS011;53776;47.242;18.674;2022-08-01T10:35:54;3.17;;;2.10;;
65857;SDS011;53776;47.242;18.674;2022-08-01T10:38:20;3.42;;;2.20;;
65857;SDS011;53776;47.242;18.674;2022-08-01T10:40:46;2.42;;;1.92;;
65857;SDS011;53776;47.242;18.674;2022-08-01T10:43:12;4.55;;;2.00;;
65857;SDS011;53776;47.242;18.674;2022-08-01T10:45:39;6.43;;;2.60;;
65857;SDS011;53776;47.242;18.674;2022-08-01T10:48:16;3.08;;;1.80;;
65857;SDS011;53776;47.242;18.674;2022-08-01T10:50:49;3.47;;;1.92;;
65857;SDS011;53776;47.242;18.674;2022-08-01T10:58:25;4.30;;;2.00;;
65857;SDS011;53776;47.242;18.674;2022-08-01T11:04:02;2.80;;;1.90;;
65857;SDS011;53776;47.242;18.674;2022-08-01T11:09:00;4.05;;;2.20;;
65857;SDS011;53776;47.242;18.674;2022-08-01T11:11:27;3.13;;;2.20;;
65857;SDS011;53776;47.242;18.674;2022-08-01T11:16:30;6.60;;;2.30;;
65857;SDS011;53776;47.242;18.674;2022-08-01T11:19:00;3.58;;;2.15;;
65857;SDS011;53776;47.242;18.674;2022-08-01T11:27:26;3.45;;;2.00;;
65857;SDS011;53776;47.242;18.674;2022-08-01T11:32:33;5.47;;;2.25;;
65857;SDS011;53776;47.242;18.674;2022-08-01T11:34:59;4.32;;;1.95;;
65857;SDS011;53776;47.242;18.674;2022-08-01T11:37:27;6.35;;;2.15;;
65857;SDS011;53776;47.242;18.674;2022-08-01T11:45:53;3.70;;;2.42;;
65857;SDS011;53776;47.242;18.674;2022-08-01T11:48:26;3.15;;;2.15;;
65857;SDS011;53776;47.242;18.674;2022-08-01T11:50:53;5.20;;;2.20;;
65857;SDS011;53776;47.242;18.674;2022-08-01T11:53:19;5.37;;;2.23;;
65857;SDS011;53776;47.242;18.674;2022-08-01T11:55:46;7.93;;;2.17;;
65857;SDS011;53776;47.242;18.674;2022-08-01T11:58:14;5.93;;;2.30;;
65857;SDS011;53776;47.242;18.674;2022-08-01T12:00:40;5.40;;;2.47;;
65857;SDS011;53776;47.242;18.674;2022-08-01T12:03:06;2.65;;;2.05;;
65857;SDS011;53776;47.242;18.674;2022-08-01T12:05:33;7.80;;;2.70;;
65857;SDS011;53776;47.242;18.674;2022-08-01T12:08:02;4.47;;;2.22;;
65857;SDS011;53776;47.242;18.674;2022-08-01T12:10:29;4.95;;;2.47;;
65857;SDS011;53776;47.242;18.674;2022-08-01T12:13:01;8.30;;;2.38;;
65857;SDS011;53776;47.242;18.674;2022-08-01T12:17:56;3.60;;;2.10;;
65857;SDS011;53776;47.242;18.674;2022-08-01T12:20:24;3.03;;;2.40;;
65857;SDS011;53776;47.242;18.674;2022-08-01T12:22:54;8.18;;;2.45;;
65857;SDS011;53776;47.242;18.674;2022-08-01T12:25:21;4.20;;;2.45;;
65857;SDS011;53776;47.242;18.674;2022-08-01T12:27:47;4.80;;;2.30;;
65857;SDS011;53776;47.242;18.674;2022-08-01T12:30:14;4.32;;;2.10;;
65857;SDS011;53776;47.242;18.674;2022-08-01T12:32:45;9.50;;;2.20;;
65857;SDS011;53776;47.242;18.674;2022-08-01T12:35:13;12.27;;;2.50;;
65857;SDS011;53776;47.242;18.674;2022-08-01T12:38:02;9.30;;;2.53;;
65857;SDS011;53776;47.242;18.674;2022-08-01T12:43:01;3.92;;;2.47;;
65857;SDS011;53776;47.242;18.674;2022-08-01T12:47:59;4.13;;;2.20;;
65857;SDS011;53776;47.242;18.674;2022-08-01T12:50:26;5.38;;;2.20;;
65857;SDS011;53776;47.242;18.674;2022-08-01T12:52:55;4.03;;;2.10;;
65857;SDS011;53776;47.242;18.674;2022-08-01T12:55:22;2.70;;;2.03;;
65857;SDS011;53776;47.242;18.674;2022-08-01T12:57:50;2.33;;;1.85;;
65857;SDS011;53776;47.242;18.674;2022-08-01T13:00:29;3.10;;;1.90;;
65857;SDS011;53776;47.242;18.674;2022-08-01T13:03:08;10.23;;;2.30;;
65857;SDS011;53776;47.242;18.674;2022-08-01T13:05:49;8.52;;;2.40;;
65857;SDS011;53776;47.242;18.674;2022-08-01T13:08:16;5.53;;;2.43;;
65857;SDS011;53776;47.242;18.674;2022-08-01T13:10:47;3.30;;;2.10;;
65857;SDS011;53776;47.242;18.674;2022-08-01T13:13:13;4.07;;;2.42;;
65857;SDS011;53776;47.242;18.674;2022-08-01T13:15:41;6.80;;;2.33;;
65857;SDS011;53776;47.242;18.674;2022-08-01T13:18:24;3.05;;;2.13;;
65857;SDS011;53776;47.242;18.674;2022-08-01T13:23:35;5.18;;;2.22;;
65857;SDS011;53776;47.242;18.674;2022-08-01T13:26:00;5.35;;;2.35;;
65857;SDS011;53776;47.242;18.674;2022-08-01T13:28:26;6.18;;;2.20;;
65857;SDS011;53776;47.242;18.674;2022-08-01T13:30:59;2.72;;;1.90;;
65857;SDS011;53776;47.242;18.674;2022-08-01T13:33:42;3.57;;;2.13;;
65857;SDS011;53776;47.242;18.674;2022-08-01T13:36:11;3.08;;;2.13;;
65857;SDS011;53776;47.242;18.674;2022-08-01T13:38:37;2.42;;;2.08;;
65857;SDS011;53776;47.242;18.674;2022-08-01T13:41:21;6.47;;;2.13;;
65857;SDS011;53776;47.242;18.674;2022-08-01T13:43:47;2.92;;;2.15;;
65857;SDS011;53776;47.242;18.674;2022-08-01T13:46:13;4.28;;;2.05;;
65857;SDS011;53776;47.242;18.674;2022-08-01T13:48:38;4.47;;;1.88;;
65857;SDS011;53776;47.242;18.674;2022-08-01T13:51:04;4.95;;;1.98;;
65857;SDS011;53776;47.242;18.674;2022-08-01T13:53:29;3.78;;;1.90;;
65857;SDS011;53776;47.242;18.674;2022-08-01T13:55:55;2.80;;;2.10;;
65857;SDS011;53776;47.242;18.674;2022-08-01T13:58:21;4.70;;;2.20;;
65857;SDS011;53776;47.242;18.674;2022-08-01T14:00:47;7.00;;;2.05;;
65857;SDS011;53776;47.242;18.674;2022-08-01T14:03:12;3.90;;;1.95;;
65857;SDS011;53776;47.242;18.674;2022-08-01T14:05:38;2.80;;;2.00;;
65857;SDS011;53776;47.242;18.674;2022-08-01T14:08:04;3.58;;;1.92;;
65857;SDS011;53776;47.242;18.674;2022-08-01T14:10:30;5.07;;;2.28;;
65857;SDS011;53776;47.242;18.674;2022-08-01T14:12:55;5.35;;;2.15;;
65857;SDS011;53776;47.242;18.674;2022-08-01T14:15:22;7.13;;;2.67;;
65857;SDS011;53776;47.242;18.674;2022-08-01T14:17:48;8.65;;;2.22;;
65857;SDS011;53776;47.242;18.674;2022-08-01T14:20:13;9.50;;;2.38;;
65857;SDS011;53776;47.242;18.674;2022-08-01T14:22:38;3.45;;;2.60;;
65857;SDS011;53776;47.242;18.674;2022-08-01T14:25:05;7.97;;;2.67;;
65857;SDS011;53776;47.242;18.674;2022-08-01T14:27:31;4.45;;;2.50;;
65857;SDS011;53776;47.242;18.674;2022-08-01T14:30:01;6.25;;;2.38;;
65857;SDS011;53776;47.242;18.674;2022-08-01T14:32:27;3.85;;;2.30;;
65857;SDS011;53776;47.242;18.674;2022-08-01T14:34:52;4.40;;;2.40;;
65857;SDS011;53776;47.242;18.674;2022-08-01T14:37:17;3.92;;;2.28;;
65857;SDS011;53776;47.242;18.674;2022-08-01T14:39:43;6.15;;;2.63;;
65857;SDS011;53776;47.242;18.674;2022-08-01T14:42:08;5.05;;;2.42;;
65857;SDS011;53776;47.242;18.674;2022-08-01T14:44:34;4.45;;;2.28;;
65857;SDS011;53776;47.242;18.674;2022-08-01T14:46:59;3.40;;;2.47;;
65857;SDS011;53776;47.242;18.674;2022-08-01T14:49:24;3.63;;;2.40;;
65857;SDS011;53776;47.242;18.674;2022-08-01T14:51:50;3.42;;;2.65;;
65857;SDS011;53776;47.242;18.674;2022-08-01T14:54:15;2.70;;;2.50;;
65857;SDS011;53776;47.242;18.674;2022-08-01T14:56:41;5.35;;;2.90;;
65857;SDS011;53776;47.242;18.674;2022-08-01T14:59:06;6.35;;;2.80;;
65857;SDS011;53776;47.242;18.674;2022-08-01T15:01:32;8.00;;;2.58;;
65857;SDS011;53776;47.242;18.674;2022-08-01T15:03:57;5.43;;;2.60;;
65857;SDS011;53776;47.242;18.674;2022-08-01T15:06:22;3.25;;;2.42;;
65857;SDS011;53776;47.242;18.674;2022-08-01T15:08:48;2.53;;;2.28;;
65857;SDS011;53776;47.242;18.674;2022-08-01T15:11:13;3.20;;;2.00;;
65857;SDS011;53776;47.242;18.674;2022-08-01T15:13:39;3.65;;;2.00;;
65857;SDS011;53776;47.242;18.674;2022-08-01T15:16:04;3.05;;;2.10;;
65857;SDS011;53776;47.242;18.674;2022-08-01T15:18:30;1.90;;;1.75;;
65857;SDS011;53776;47.242;18.674;2022-08-01T15:20:55;2.83;;;1.95;;
65857;SDS011;53776;47.242;18.674;2022-08-01T15:23:22;5.68;;;1.70;;
65857;SDS011;53776;47.242;18.674;2022-08-01T15:25:48;6.40;;;1.83;;
65857;SDS011;53776;47.242;18.674;2022-08-01T15:28:13;1.92;;;1.80;;
65857;SDS011;53776;47.242;18.674;2022-08-01T15:30:39;3.25;;;2.00;;
65857;SDS011;53776;47.242;18.674;2022-08-01T15:33:05;7.55;;;2.17;;
65857;SDS011;53776;47.242;18.674;2022-08-01T15:35:31;7.13;;;2.35;;
65857;SDS011;53776;47.242;18.674;2022-08-01T15:37:56;5.55;;;2.08;;
65857;SDS011;53776;47.242;18.674;2022-08-01T15:40:22;3.58;;;2.10;;
65857;SDS011;53776;47.242;18.674;2022-08-01T15:42:47;3.92;;;2.30;;